This is the latest recevied weather packets stored in our database for station/object KG2V. If no packets are shown the sender has not sent any weather packets the latest 10 day(s).
| Time | Temp. | Humidity | Pressure | Rain* | Wind** | Luminosity | Snow |
|---|---|---|---|---|---|---|---|
| 1777551677 | 6.11° C | 92% | 1005.8 hPa | 0 mm | - | 78 W/m² | - |
| 1777550464 | 5.56° C | 94% | 1006 hPa | 0 mm | - | 76 W/m² | - |
| 1777550160 | 5.56° C | 94% | 1006.3 hPa | 0 mm | - | 80 W/m² | - |
| 1777549553 | 5.56° C | 94% | 1006.2 hPa | 0 mm | - | 73 W/m² | - |
| 1777549249 | 5.56° C | 94% | 1005.9 hPa | 0 mm | - | 57 W/m² | - |
| 1777548643 | 5.56° C | 94% | 1005.8 hPa | 0 mm | - | 46 W/m² | - |
| 1777548339 | 5.56° C | 95% | 1005.7 hPa | 0 mm | - | 44 W/m² | - |
| 1777547732 | 5.56° C | 95% | 1005.7 hPa | 0 mm | - | 45 W/m² | - |
| 1777545302 | 5.56° C | 95% | 1005.2 hPa | 0 mm | - | 10 W/m² | - |
| 1777544999 | 5.56° C | 95% | 1005.1 hPa | 0 mm | - | 9 W/m² | - |
| 1777544696 | 5.56° C | 96% | 1004.9 hPa | 0 mm | - | 6 W/m² | - |
| 1777544391 | 5.56° C | 95% | 1005 hPa | 0 mm | - | 4 W/m² | - |
| 1777544088 | 5.56° C | 96% | 1005 hPa | 0 mm | - | 2 W/m² | - |
| 1777543786 | 5.56° C | 95% | 1005 hPa | 0 mm | - | 1 W/m² | - |
| 1777543481 | 5.56° C | 95% | 1004.8 hPa | 0 mm | - | 1 W/m² | - |
| 1777543178 | 5.56° C | 95% | 1004.6 hPa | 0 mm | - | 0 W/m² | - |
| 1777542571 | 5.56° C | 95% | 1004.6 hPa | 0 mm | - | 0 W/m² | - |
| 1777542267 | 5.56° C | 95% | 1004.4 hPa | 0 mm | - | 0 W/m² | - |
| 1777541964 | 5.56° C | 95% | 1004.6 hPa | 0 mm | - | 0 W/m² | - |
| 1777541661 | 5.56° C | 95% | 1004.9 hPa | 0 mm | - | 0 W/m² | - |
| 1777541358 | 5.56° C | 95% | 1004.8 hPa | 0 mm | - | 0 W/m² | - |
| 1777541053 | 5.56° C | 95% | 1004.7 hPa | 0 mm | - | 0 W/m² | - |
| 1777540750 | 5.56° C | 95% | 1004.7 hPa | 0 mm | - | 0 W/m² | - |
| 1777540448 | 5.56° C | 95% | 1004.6 hPa | 0 mm | - | 0 W/m² | - |
| 1777539839 | 5.56° C | 95% | 1004.7 hPa | 0 mm | - | 0 W/m² | - |
* Rain latest hour (hover to see other rain measurements)
** Current wind speed in m/s (hover to see current wind gust speed)